Time;durP1;ratioP1;P1;durP2;ratioP2;P2;SDS_P1;SDS_P2;PMS_P1;PMS_P2;Temp;Humidity;BMP_temperature;BMP_pressure;BME280_temperature;BME280_humidity;BME280_pressure;Samples;Min_cycle;Max_cycle;Signal;HPM_P1;HPM_P2
2024/03/20 00:02:11;;;;;;;3.40;1.85;;;10.20;99.90;;;;;;5043738;28;20045;-51
2024/03/20 00:04:36;;;;;;;4.63;1.88;;;10.20;99.90;;;;;;5044522;28;20041;-59
2024/03/20 00:07:02;;;;;;;8.05;1.95;;;10.10;99.90;;;;;;5023562;28;20060;-53
2024/03/20 00:09:28;;;;;;;3.80;1.88;;;10.10;99.90;;;;;;5044374;28;20434;-60
2024/03/20 00:11:54;;;;;;;5.45;2.15;;;10.10;99.90;;;;;;5044452;28;20045;-59
2024/03/20 00:14:19;;;;;;;5.40;2.50;;;10.10;99.90;;;;;;5026094;28;20049;-52
2024/03/20 00:16:45;;;;;;;4.80;2.00;;;10.10;99.90;;;;;;5026975;28;20047;-58
2024/03/20 00:19:11;;;;;;;3.63;2.10;;;10.10;99.90;;;;;;5025457;28;20053;-58
2024/03/20 00:21:37;;;;;;;5.55;2.20;;;10.10;99.90;;;;;;5044528;28;20127;-55
2024/03/20 00:24:03;;;;;;;2.63;2.10;;;10.10;99.90;;;;;;5061661;28;20056;-61
2024/03/20 00:26:29;;;;;;;4.75;2.45;;;10.10;99.90;;;;;;5064432;28;20162;-65
2024/03/20 00:28:55;;;;;;;2.28;2.08;;;10.10;99.90;;;;;;5045051;28;20044;-50
2024/03/20 00:31:21;;;;;;;4.43;2.30;;;10.00;99.90;;;;;;5063913;28;20044;-55
2024/03/20 00:33:47;;;;;;;4.55;2.15;;;10.00;99.90;;;;;;5063935;28;20420;-55
2024/03/20 00:36:12;;;;;;;9.18;2.47;;;10.00;99.90;;;;;;5062947;28;20131;-54
2024/03/20 00:38:41;;;;;;;4.10;2.15;;;10.00;99.90;;;;;;5064530;28;20048;-57
2024/03/20 00:41:08;;;;;;;4.43;2.00;;;10.00;99.90;;;;;;5044488;28;20114;-62
2024/03/20 00:43:37;;;;;;;6.00;2.22;;;10.00;99.90;;;;;;5063448;28;20665;-60
2024/03/20 00:46:03;;;;;;;6.07;2.50;;;9.90;99.90;;;;;;5063324;28;20045;-55
2024/03/20 00:48:29;;;;;;;4.93;2.58;;;9.90;99.90;;;;;;5063849;28;20067;-61
2024/03/20 00:50:55;;;;;;;6.72;2.60;;;10.00;99.90;;;;;;5056548;28;20044;-64
2024/03/20 00:53:20;;;;;;;4.22;2.58;;;10.00;99.90;;;;;;5063652;28;20044;-49
2024/03/20 00:55:46;;;;;;;7.93;1.90;;;10.00;99.90;;;;;;5056679;28;20053;-56
2024/03/20 00:58:12;;;;;;;4.80;2.30;;;9.90;99.90;;;;;;5063372;28;20041;-57
2024/03/20 01:00:39;;;;;;;5.40;2.10;;;9.90;99.90;;;;;;5053116;28;20474;-49
2024/03/20 01:03:08;;;;;;;4.75;2.15;;;9.90;99.90;;;;;;5062344;28;20537;-54
2024/03/20 01:05:34;;;;;;;5.13;2.40;;;10.00;99.90;;;;;;5061849;28;20350;-59
2024/03/20 01:08:00;;;;;;;3.15;2.03;;;9.90;99.90;;;;;;5063308;28;20040;-59
2024/03/20 01:10:25;;;;;;;4.95;2.75;;;9.90;99.90;;;;;;5062164;28;20048;-56
2024/03/20 01:12:52;;;;;;;5.63;2.92;;;9.90;99.90;;;;;;5063721;28;20052;-55
2024/03/20 01:15:17;;;;;;;5.07;2.30;;;9.90;99.90;;;;;;5042452;28;20093;-51
2024/03/20 01:17:44;;;;;;;3.58;2.25;;;9.90;99.90;;;;;;5063908;28;20036;-61
2024/03/20 01:20:11;;;;;;;4.57;2.88;;;9.90;99.90;;;;;;5044680;28;20048;-55
2024/03/20 01:22:37;;;;;;;5.55;2.45;;;9.90;99.90;;;;;;5054936;28;20065;-57
2024/03/20 01:25:05;;;;;;;4.70;2.30;;;9.90;99.90;;;;;;5049892;28;20429;-58
2024/03/20 01:27:31;;;;;;;4.70;2.35;;;9.90;99.90;;;;;;5041118;28;20820;-50
2024/03/20 01:29:57;;;;;;;7.25;2.55;;;9.90;99.90;;;;;;5044096;28;20137;-52
2024/03/20 01:32:23;;;;;;;5.30;2.08;;;9.90;99.90;;;;;;5047224;28;20040;-57
2024/03/20 01:34:49;;;;;;;4.43;2.00;;;9.90;99.90;;;;;;5046326;28;20131;-49
2024/03/20 01:37:15;;;;;;;4.88;2.50;;;9.90;99.90;;;;;;5041564;28;20053;-61
2024/03/20 01:39:41;;;;;;;5.95;2.42;;;9.90;99.90;;;;;;5033240;28;20498;-51
2024/03/20 01:42:07;;;;;;;8.88;3.60;;;9.90;99.90;;;;;;5046433;28;20036;-62
2024/03/20 01:44:34;;;;;;;6.13;2.22;;;9.90;99.90;;;;;;5025158;28;20094;-61
2024/03/20 01:47:01;;;;;;;5.10;2.42;;;9.90;99.90;;;;;;5041607;28;20079;-59
2024/03/20 01:49:27;;;;;;;5.72;2.33;;;9.90;99.90;;;;;;5017312;28;20479;-57
2024/03/20 01:51:53;;;;;;;5.78;2.50;;;9.90;99.90;;;;;;5042795;28;20574;-51
2024/03/20 01:54:19;;;;;;;10.02;2.42;;;9.90;99.90;;;;;;5041149;28;20045;-62
2024/03/20 01:56:45;;;;;;;9.32;2.30;;;9.90;99.90;;;;;;5043092;28;20037;-61
2024/03/20 01:59:11;;;;;;;5.30;2.58;;;9.90;99.90;;;;;;5041931;28;20049;-61
2024/03/20 02:01:39;;;;;;;7.80;2.70;;;9.90;99.90;;;;;;5042872;28;20056;-61
2024/03/20 02:04:05;;;;;;;5.95;2.08;;;9.90;99.90;;;;;;5041861;28;20052;-52
2024/03/20 02:06:32;;;;;;;7.57;2.42;;;9.90;99.90;;;;;;5041672;28;20400;-57
2024/03/20 02:08:58;;;;;;;5.85;2.25;;;9.90;99.90;;;;;;5028647;28;20128;-63
2024/03/20 02:11:26;;;;;;;8.07;2.58;;;9.90;99.90;;;;;;5030974;28;20044;-56
2024/03/20 02:13:56;;;;;;;4.72;2.17;;;9.90;99.90;;;;;;5047209;28;20065;-60
2024/03/20 02:16:23;;;;;;;5.85;2.30;;;9.90;99.90;;;;;;5041793;28;20041;-59
2024/03/20 02:18:50;;;;;;;5.60;2.55;;;9.90;99.90;;;;;;5041684;28;20526;-64
2024/03/20 02:21:19;;;;;;;3.28;2.20;;;9.90;99.90;;;;;;5041968;28;20153;-59
2024/03/20 02:23:45;;;;;;;3.70;2.33;;;9.90;99.90;;;;;;5045524;28;20576;-56
2024/03/20 02:26:11;;;;;;;10.75;2.70;;;9.80;99.90;;;;;;5041999;28;20140;-63
2024/03/20 02:28:43;;;;;;;10.13;2.53;;;9.90;99.90;;;;;;5041195;28;20037;-54
2024/03/20 02:31:09;;;;;;;8.45;2.65;;;9.80;99.90;;;;;;5042315;28;20829;-65
2024/03/20 02:33:36;;;;;;;6.65;2.53;;;9.90;99.90;;;;;;5040795;28;20044;-58
2024/03/20 02:36:03;;;;;;;10.38;2.55;;;9.80;99.90;;;;;;5041510;28;20458;-51
2024/03/20 02:38:39;;;;;;;6.35;2.22;;;9.80;99.90;;;;;;5041143;28;20119;-57
2024/03/20 02:41:06;;;;;;;3.45;2.25;;;9.80;99.90;;;;;;5042470;28;20049;-63
2024/03/20 02:43:32;;;;;;;6.75;2.25;;;9.80;99.90;;;;;;5040956;28;20056;-62
2024/03/20 02:45:58;;;;;;;17.48;4.20;;;9.80;99.90;;;;;;5041984;28;20157;-57
2024/03/20 02:48:24;;;;;;;10.15;2.58;;;9.70;99.90;;;;;;5038121;28;20562;-61
2024/03/20 02:50:50;;;;;;;7.38;2.55;;;9.70;99.90;;;;;;5041206;28;20041;-51
2024/03/20 02:53:16;;;;;;;4.70;2.78;;;9.70;99.90;;;;;;5040750;28;20442;-50
2024/03/20 02:55:43;;;;;;;6.32;2.90;;;9.70;99.90;;;;;;5041448;28;20049;-62
2024/03/20 02:58:09;;;;;;;8.38;3.00;;;9.60;99.90;;;;;;5041108;28;20040;-54
2024/03/20 03:00:35;;;;;;;5.47;1.95;;;9.60;99.90;;;;;;5041746;28;20498;-56
2024/03/20 03:03:02;;;;;;;6.28;2.42;;;9.60;99.90;;;;;;5040761;28;20055;-54
2024/03/20 03:05:29;;;;;;;7.10;2.72;;;9.60;99.90;;;;;;5041634;28;20420;-52
2024/03/20 03:07:54;;;;;;;10.55;2.80;;;9.60;99.90;;;;;;5037785;28;20095;-54
2024/03/20 03:10:22;;;;;;;8.73;2.97;;;9.50;99.90;;;;;;5004211;28;20426;-61
2024/03/20 03:12:51;;;;;;;8.57;3.03;;;9.50;99.90;;;;;;5031367;28;20067;-65
2024/03/20 03:15:18;;;;;;;7.05;2.63;;;9.50;99.90;;;;;;5039953;28;20513;-60
2024/03/20 03:17:51;;;;;;;7.63;2.95;;;9.50;99.90;;;;;;5022850;28;20527;-49
2024/03/20 03:20:19;;;;;;;9.13;2.85;;;9.50;99.90;;;;;;5038659;28;20053;-55
2024/03/20 03:22:46;;;;;;;6.10;2.50;;;9.50;99.90;;;;;;5023858;28;20057;-59
2024/03/20 03:25:13;;;;;;;3.42;2.15;;;9.50;99.90;;;;;;5041314;28;20049;-58
2024/03/20 03:27:39;;;;;;;10.70;2.22;;;9.40;99.90;;;;;;5040663;28;20371;-58
2024/03/20 03:30:07;;;;;;;6.20;2.65;;;9.40;99.90;;;;;;5029136;28;20049;-63
2024/03/20 03:32:34;;;;;;;8.80;3.08;;;9.40;99.90;;;;;;5040730;28;20116;-61
2024/03/20 03:35:00;;;;;;;15.98;4.85;;;9.40;99.90;;;;;;5039396;28;20055;-53
2024/03/20 03:37:25;;;;;;;5.97;2.90;;;9.40;99.90;;;;;;5039710;28;20057;-62
2024/03/20 03:39:52;;;;;;;13.32;3.85;;;9.30;99.90;;;;;;5032200;28;20057;-50
2024/03/20 03:42:19;;;;;;;7.63;3.08;;;9.30;99.90;;;;;;5039767;28;20049;-65
2024/03/20 03:44:45;;;;;;;10.93;3.58;;;9.30;99.90;;;;;;5038767;28;20049;-51
2024/03/20 03:47:11;;;;;;;7.25;3.17;;;9.30;99.90;;;;;;5040942;28;20053;-59
2024/03/20 03:49:36;;;;;;;12.18;3.70;;;9.30;99.90;;;;;;5039891;28;20040;-50
2024/03/20 03:52:03;;;;;;;7.93;2.95;;;9.30;99.90;;;;;;5041439;28;20080;-61
2024/03/20 03:54:29;;;;;;;7.50;2.53;;;9.40;99.90;;;;;;5035483;28;20466;-53
2024/03/20 03:56:54;;;;;;;14.05;5.47;;;9.30;99.90;;;;;;5037938;28;20075;-54
2024/03/20 03:59:20;;;;;;;13.55;3.60;;;9.30;99.90;;;;;;5035731;28;20049;-51
2024/03/20 04:01:47;;;;;;;6.60;2.70;;;9.30;99.90;;;;;;5039879;28;20041;-58
2024/03/20 04:04:13;;;;;;;10.38;2.65;;;9.30;99.90;;;;;;5043958;28;20081;-59
2024/03/20 04:06:40;;;;;;;7.60;2.60;;;9.30;99.90;;;;;;5044540;28;20426;-64
2024/03/20 04:09:05;;;;;;;3.75;2.35;;;9.30;99.90;;;;;;5044196;28;20513;-50
2024/03/20 04:11:32;;;;;;;3.90;2.50;;;9.30;99.90;;;;;;5051058;28;20076;-58
2024/03/20 04:13:58;;;;;;;6.68;3.22;;;9.30;99.90;;;;;;5043737;28;20084;-60
2024/03/20 04:16:23;;;;;;;10.82;3.47;;;9.30;99.90;;;;;;5044271;28;20125;-59
2024/03/20 04:18:49;;;;;;;9.10;3.33;;;9.30;99.90;;;;;;5042913;28;20118;-55
2024/03/20 04:21:15;;;;;;;6.00;2.65;;;9.20;99.90;;;;;;5042866;28;20081;-60
2024/03/20 04:23:41;;;;;;;4.30;2.85;;;9.30;99.90;;;;;;5055341;28;20041;-58
2024/03/20 04:26:07;;;;;;;4.68;2.53;;;9.30;99.90;;;;;;5062607;28;20491;-57
2024/03/20 04:28:33;;;;;;;6.63;2.42;;;9.20;99.90;;;;;;5039790;28;20115;-59
2024/03/20 04:30:59;;;;;;;7.90;2.72;;;9.20;99.90;;;;;;5064540;28;20154;-52
2024/03/20 04:33:24;;;;;;;7.50;3.40;;;9.20;99.90;;;;;;5057081;28;20040;-60
2024/03/20 04:35:51;;;;;;;6.50;2.90;;;9.20;99.90;;;;;;5046113;28;20168;-61
2024/03/20 04:38:17;;;;;;;8.05;3.03;;;9.20;99.90;;;;;;5063613;28;20470;-57
2024/03/20 04:40:42;;;;;;;6.25;2.97;;;9.10;99.90;;;;;;5062830;28;20190;-62
2024/03/20 04:43:08;;;;;;;6.88;2.63;;;9.10;99.90;;;;;;5063021;28;20668;-55
2024/03/20 04:45:34;;;;;;;9.32;2.72;;;9.10;99.90;;;;;;5063563;28;20048;-64
2024/03/20 04:47:59;;;;;;;3.10;2.80;;;9.10;99.90;;;;;;5045514;28;20084;-62
2024/03/20 04:50:25;;;;;;;6.63;3.00;;;9.00;99.90;;;;;;5063999;28;20117;-58
2024/03/20 04:52:51;;;;;;;5.70;2.67;;;9.00;99.90;;;;;;5063449;28;20060;-62
2024/03/20 04:55:17;;;;;;;7.65;3.17;;;9.00;99.90;;;;;;5063073;28;20062;-56
2024/03/20 04:57:42;;;;;;;5.85;3.33;;;9.00;99.90;;;;;;5062820;28;20044;-57
2024/03/20 05:00:13;;;;;;;5.03;2.85;;;8.90;99.90;;;;;;5042766;28;20128;-49
2024/03/20 05:02:39;;;;;;;6.28;3.28;;;8.90;99.90;;;;;;5063680;28;20084;-52
2024/03/20 05:05:06;;;;;;;6.43;2.92;;;8.90;99.90;;;;;;5049775;28;20151;-52
2024/03/20 05:07:32;;;;;;;6.63;3.90;;;8.90;99.90;;;;;;5063150;28;20048;-65
2024/03/20 05:09:57;;;;;;;11.88;3.63;;;8.80;99.90;;;;;;5062746;28;20503;-55
2024/03/20 05:12:23;;;;;;;8.85;3.42;;;8.80;99.90;;;;;;5063618;28;20113;-59
2024/03/20 05:14:49;;;;;;;5.78;3.58;;;8.80;99.90;;;;;;5061854;28;20177;-62
2024/03/20 05:17:15;;;;;;;7.97;3.83;;;8.80;99.90;;;;;;5062979;28;20044;-60
2024/03/20 05:19:40;;;;;;;7.68;4.43;;;8.90;99.90;;;;;;5062066;28;20041;-60
2024/03/20 05:22:06;;;;;;;4.72;3.30;;;8.80;99.90;;;;;;5063686;28;20132;-51
2024/03/20 05:24:32;;;;;;;5.18;3.25;;;8.80;99.90;;;;;;5024640;28;20126;-59
2024/03/20 05:26:58;;;;;;;6.68;3.55;;;8.80;99.90;;;;;;5042513;28;20045;-60
2024/03/20 05:29:23;;;;;;;5.72;3.50;;;8.80;99.90;;;;;;5042268;28;20132;-57
2024/03/20 05:31:49;;;;;;;6.30;3.63;;;8.80;99.90;;;;;;5041861;28;20120;-56
2024/03/20 05:34:15;;;;;;;5.82;3.45;;;8.80;99.90;;;;;;5042465;28;20059;-52
2024/03/20 05:36:40;;;;;;;6.15;3.70;;;8.80;99.90;;;;;;5036414;28;20052;-53
2024/03/20 05:39:08;;;;;;;6.38;3.58;;;8.80;99.90;;;;;;5042129;28;20135;-55
2024/03/20 05:41:34;;;;;;;7.70;3.88;;;8.80;99.90;;;;;;5042804;28;20068;-55
2024/03/20 05:43:59;;;;;;;6.63;3.67;;;8.80;99.90;;;;;;5042089;28;20099;-58
2024/03/20 05:46:25;;;;;;;6.63;3.55;;;8.80;99.90;;;;;;5040185;28;20411;-55
2024/03/20 05:48:51;;;;;;;7.80;3.80;;;8.80;99.90;;;;;;5041983;28;20415;-56
2024/03/20 05:51:17;;;;;;;10.02;3.78;;;8.80;99.90;;;;;;5042647;28;20037;-59
2024/03/20 05:53:42;;;;;;;6.68;4.18;;;8.80;99.90;;;;;;5042662;28;20041;-52
2024/03/20 05:56:08;;;;;;;7.40;3.47;;;8.80;99.90;;;;;;5042358;28;20040;-52
2024/03/20 05:58:34;;;;;;;7.43;4.10;;;8.80;99.90;;;;;;5042558;28;20483;-53
2024/03/20 06:01:00;;;;;;;7.38;4.22;;;8.80;99.90;;;;;;5031923;28;20057;-57
2024/03/20 06:03:26;;;;;;;10.48;4.68;;;8.80;99.90;;;;;;5024575;28;20183;-51
2024/03/20 06:05:51;;;;;;;8.38;4.53;;;8.90;99.90;;;;;;5040516;28;20132;-48
2024/03/20 06:08:17;;;;;;;10.02;4.05;;;8.90;99.90;;;;;;5042805;28;20036;-61
2024/03/20 06:10:43;;;;;;;10.00;4.53;;;9.00;99.90;;;;;;5029360;28;20442;-63
2024/03/20 06:13:09;;;;;;;11.30;4.68;;;8.90;99.90;;;;;;5042540;28;20045;-48
2024/03/20 06:15:35;;;;;;;9.95;3.78;;;9.10;99.90;;;;;;5042755;28;20048;-53
2024/03/20 06:18:02;;;;;;;10.93;4.75;;;9.10;99.90;;;;;;5040412;28;20037;-59
2024/03/20 06:20:28;;;;;;;9.43;4.38;;;9.10;99.90;;;;;;5042098;28;20398;-57
2024/03/20 06:22:53;;;;;;;9.35;3.88;;;9.10;99.90;;;;;;5046960;28;20049;-61
2024/03/20 06:25:19;;;;;;;7.38;4.15;;;9.20;99.90;;;;;;5058288;28;20045;-56
2024/03/20 06:27:45;;;;;;;8.20;3.88;;;9.20;99.90;;;;;;5043945;28;20445;-50
2024/03/20 06:30:11;;;;;;;10.27;4.47;;;9.30;99.90;;;;;;5062135;28;20036;-60
2024/03/20 06:32:41;;;;;;;13.88;4.28;;;9.30;99.90;;;;;;5044706;28;20057;-62
2024/03/20 06:35:10;;;;;;;10.57;4.40;;;9.30;99.90;;;;;;5065166;28;20388;-58
2024/03/20 06:37:37;;;;;;;7.90;4.57;;;9.40;99.90;;;;;;5060978;28;20040;-58
2024/03/20 06:40:06;;;;;;;8.20;4.03;;;9.40;99.90;;;;;;5058811;28;20048;-61
2024/03/20 06:42:32;;;;;;;10.05;4.07;;;9.50;99.90;;;;;;5059443;28;20055;-58
2024/03/20 06:44:58;;;;;;;11.15;4.88;;;9.50;99.90;;;;;;5042495;28;20417;-60
2024/03/20 06:47:25;;;;;;;12.88;4.22;;;9.60;99.90;;;;;;5061334;28;20115;-57
2024/03/20 06:49:51;;;;;;;13.00;5.05;;;9.70;99.90;;;;;;5059494;28;20144;-60
2024/03/20 06:52:22;;;;;;;9.20;5.13;;;9.70;99.90;;;;;;5039644;28;20047;-55
2024/03/20 06:54:51;;;;;;;11.35;4.93;;;9.80;99.90;;;;;;5059238;28;20094;-60
2024/03/20 06:57:18;;;;;;;8.20;4.65;;;9.80;99.90;;;;;;5059052;28;20497;-55
2024/03/20 06:59:47;;;;;;;14.05;5.40;;;9.90;99.90;;;;;;5059531;28;20040;-61
2024/03/20 07:02:13;;;;;;;7.82;4.15;;;10.00;99.90;;;;;;5061154;28;20410;-62
2024/03/20 07:04:39;;;;;;;13.63;4.72;;;10.00;99.90;;;;;;5042671;28;20045;-58
2024/03/20 07:07:05;;;;;;;17.27;5.10;;;10.00;99.90;;;;;;5061135;28;20028;-57
2024/03/20 07:09:31;;;;;;;10.52;5.60;;;10.10;99.90;;;;;;5042923;28;20043;-51
2024/03/20 07:12:04;;;;;;;11.23;5.10;;;10.10;99.90;;;;;;5042274;28;20048;-55
2024/03/20 07:14:30;;;;;;;10.13;5.03;;;10.20;99.90;;;;;;5056891;28;20056;-51
2024/03/20 07:16:56;;;;;;;14.15;5.45;;;10.30;99.90;;;;;;5059393;28;20076;-63
2024/03/20 07:19:23;;;;;;;15.02;4.80;;;10.30;99.90;;;;;;5062019;28;20045;-60
2024/03/20 07:21:49;;;;;;;12.02;5.30;;;10.30;99.90;;;;;;5038978;28;20527;-61
2024/03/20 07:24:15;;;;;;;16.35;5.30;;;10.40;99.90;;;;;;5052232;28;20109;-61
2024/03/20 07:26:41;;;;;;;14.05;5.68;;;10.40;99.90;;;;;;5031447;28;20570;-56
2024/03/20 07:29:11;;;;;;;13.68;5.40;;;10.50;99.90;;;;;;5040360;28;20056;-56
2024/03/20 07:31:37;;;;;;;14.30;5.68;;;10.60;99.90;;;;;;5020036;28;20038;-57
2024/03/20 07:34:03;;;;;;;12.95;5.65;;;10.50;99.90;;;;;;5035232;28;20041;-50
2024/03/20 07:36:33;;;;;;;15.77;6.15;;;10.60;99.90;;;;;;5045763;28;20048;-57
2024/03/20 07:39:00;;;;;;;10.30;5.57;;;10.60;99.90;;;;;;5053997;28;20123;-58
2024/03/20 07:41:26;;;;;;;14.48;6.05;;;10.60;99.90;;;;;;5058341;28;20304;-52
2024/03/20 07:43:52;;;;;;;18.60;5.95;;;10.70;99.90;;;;;;5052729;28;20422;-61
2024/03/20 07:46:18;;;;;;;16.42;6.07;;;10.70;99.90;;;;;;5047909;28;20060;-58
2024/03/20 07:48:47;;;;;;;14.25;6.32;;;10.80;99.90;;;;;;5054588;28;20471;-55
2024/03/20 07:51:19;;;;;;;12.80;5.63;;;10.80;99.90;;;;;;5044671;28;20312;-60
2024/03/20 07:53:46;;;;;;;9.27;5.00;;;10.80;99.90;;;;;;5056912;28;20044;-58
2024/03/20 07:56:13;;;;;;;14.93;5.45;;;10.90;99.90;;;;;;5048055;28;20053;-62
2024/03/20 07:58:42;;;;;;;11.50;5.07;;;10.90;99.90;;;;;;5051469;28;20562;-62
2024/03/20 08:01:11;;;;;;;11.82;5.38;;;11.00;99.90;;;;;;5024774;28;20056;-58
2024/03/20 08:03:41;;;;;;;14.27;5.63;;;11.00;99.90;;;;;;5046352;28;20081;-47
2024/03/20 08:06:07;;;;;;;11.38;5.65;;;11.00;99.90;;;;;;5020119;28;20107;-60
2024/03/20 08:08:33;;;;;;;18.60;5.53;;;11.00;99.90;;;;;;5046994;28;20044;-54
2024/03/20 08:10:59;;;;;;;12.15;5.18;;;11.10;99.90;;;;;;5030736;28;20036;-55
2024/03/20 08:13:24;;;;;;;14.02;5.50;;;11.20;99.90;;;;;;5051749;28;20080;-58
2024/03/20 08:15:50;;;;;;;14.70;5.18;;;11.20;99.90;;;;;;5046569;28;20088;-49
2024/03/20 08:18:16;;;;;;;9.68;5.47;;;11.20;99.90;;;;;;5051092;28;20280;-56
2024/03/20 08:20:42;;;;;;;15.38;5.82;;;11.30;99.90;;;;;;5019972;28;20080;-60
2024/03/20 08:23:08;;;;;;;16.67;5.70;;;11.40;99.90;;;;;;5049510;28;20116;-50
2024/03/20 08:25:35;;;;;;;9.82;5.03;;;11.50;99.90;;;;;;5036794;28;20053;-61
2024/03/20 08:28:01;;;;;;;11.50;4.82;;;11.50;99.90;;;;;;5057376;28;20106;-61
2024/03/20 08:30:27;;;;;;;9.00;4.60;;;11.60;99.90;;;;;;5045879;28;20047;-62
2024/03/20 08:32:53;;;;;;;16.05;5.25;;;11.70;99.90;;;;;;5046284;28;20048;-57
2024/03/20 08:35:19;;;;;;;12.63;5.13;;;11.80;99.90;;;;;;5029836;28;20538;-52
2024/03/20 08:37:45;;;;;;;9.90;4.85;;;11.90;99.90;;;;;;5049760;28;20052;-63
2024/03/20 08:40:12;;;;;;;7.10;4.15;;;12.00;99.90;;;;;;5031252;28;20200;-52
2024/03/20 08:42:38;;;;;;;9.38;4.63;;;12.00;99.90;;;;;;5045576;28;20041;-52
2024/03/20 08:45:04;;;;;;;13.32;5.13;;;12.10;99.90;;;;;;5048873;28;20426;-58
2024/03/20 08:47:31;;;;;;;9.32;4.55;;;12.20;99.90;;;;;;5049020;28;20036;-61
2024/03/20 08:49:56;;;;;;;12.13;5.35;;;12.20;99.90;;;;;;5025235;28;20191;-61
2024/03/20 08:52:22;;;;;;;9.65;4.90;;;12.30;99.90;;;;;;5042441;28;20124;-56
2024/03/20 08:54:49;;;;;;;11.98;5.25;;;12.30;99.90;;;;;;5031590;28;20041;-61
2024/03/20 08:57:19;;;;;;;10.60;4.93;;;12.40;99.90;;;;;;5030823;28;20052;-56
2024/03/20 08:59:45;;;;;;;12.40;4.75;;;12.50;99.90;;;;;;5030891;28;20503;-46
2024/03/20 09:02:12;;;;;;;12.85;5.10;;;12.50;99.90;;;;;;5046814;28;20040;-61
2024/03/20 09:04:40;;;;;;;9.25;5.28;;;12.70;99.90;;;;;;5048497;28;20045;-62
2024/03/20 09:07:06;;;;;;;13.13;5.78;;;12.70;99.90;;;;;;5044471;28;20036;-60
2024/03/20 09:09:33;;;;;;;9.30;5.43;;;12.80;99.90;;;;;;5046514;28;20563;-61
2024/03/20 09:11:59;;;;;;;9.73;5.10;;;12.80;99.90;;;;;;5038079;28;20037;-64
2024/03/20 09:14:25;;;;;;;12.65;5.55;;;12.90;99.90;;;;;;5026159;28;20044;-52
2024/03/20 09:16:53;;;;;;;12.25;5.13;;;13.00;99.90;;;;;;5051158;28;20044;-55
2024/03/20 09:19:19;;;;;;;10.52;5.43;;;13.00;99.90;;;;;;5034946;28;20603;-53
2024/03/20 09:21:45;;;;;;;14.10;5.45;;;13.10;99.90;;;;;;5044271;28;20037;-52
2024/03/20 09:24:16;;;;;;;11.70;4.97;;;13.20;99.90;;;;;;5044082;28;20056;-62
2024/03/20 09:26:42;;;;;;;11.68;5.00;;;13.30;99.90;;;;;;5019248;28;20053;-58
2024/03/20 09:29:08;;;;;;;13.15;5.10;;;13.40;99.90;;;;;;5042130;28;20048;-51
2024/03/20 09:31:34;;;;;;;13.70;5.43;;;13.50;99.90;;;;;;5047807;28;20032;-56
2024/03/20 09:33:59;;;;;;;11.35;5.28;;;13.50;99.90;;;;;;5051338;28;20395;-62
2024/03/20 09:36:28;;;;;;;8.15;5.25;;;13.60;99.90;;;;;;5041831;28;20048;-60
2024/03/20 09:38:55;;;;;;;12.05;5.30;;;13.70;99.90;;;;;;5026160;28;20053;-61
2024/03/20 09:41:22;;;;;;;15.30;5.70;;;13.70;99.90;;;;;;5036822;28;20116;-56
2024/03/20 09:43:52;;;;;;;8.60;5.00;;;13.80;99.90;;;;;;5055891;28;20095;-62
2024/03/20 09:46:19;;;;;;;13.02;5.32;;;13.90;99.90;;;;;;5024267;28;20458;-64
2024/03/20 09:48:53;;;;;;;17.70;6.00;;;14.00;99.90;;;;;;5043440;28;20152;-50
2024/03/20 09:51:20;;;;;;;13.52;5.05;;;14.10;99.90;;;;;;5042596;28;20045;-64
2024/03/20 09:53:49;;;;;;;18.98;5.53;;;14.10;99.90;;;;;;5043696;28;20044;-52
2024/03/20 09:56:20;;;;;;;11.90;5.40;;;14.20;1.00;;;;;;4999470;28;20506;-57
2024/03/20 09:58:47;;;;;;;17.67;4.90;;;14.30;1.00;;;;;;5042525;28;20049;-56
2024/03/20 10:01:15;;;;;;;15.60;4.85;;;14.40;99.90;;;;;;5042256;28;20053;-51
2024/03/20 10:03:45;;;;;;;10.30;5.22;;;14.40;99.90;;;;;;5043540;28;20503;-51
2024/03/20 10:06:11;;;;;;;14.60;4.82;;;14.40;99.90;;;;;;5020186;28;20081;-60
2024/03/20 10:08:40;;;;;;;16.58;5.72;;;14.50;99.90;;;;;;5043223;28;20154;-59
2024/03/20 10:11:10;;;;;;;8.10;4.28;;;14.50;99.90;;;;;;5034685;28;20068;-58
2024/03/20 10:13:36;;;;;;;10.52;5.43;;;14.60;99.90;;;;;;5032914;28;20044;-58
2024/03/20 10:16:13;;;;;;;12.60;4.90;;;14.60;99.90;;;;;;5028832;28;20045;-60
2024/03/20 10:18:40;;;;;;;11.93;4.65;;;14.70;99.90;;;;;;5028871;28;20106;-59
2024/03/20 10:21:06;;;;;;;13.90;4.78;;;14.80;99.90;;;;;;5030787;28;20040;-48
2024/03/20 10:23:39;;;;;;;12.70;4.30;;;14.80;99.90;;;;;;5035433;28;20061;-61
2024/03/20 10:26:05;;;;;;;15.48;5.82;;;14.90;99.90;;;;;;5042538;28;20041;-64
2024/03/20 10:28:31;;;;;;;13.40;4.53;;;15.00;99.90;;;;;;5020127;28;20190;-56
2024/03/20 10:31:03;;;;;;;9.95;5.40;;;15.10;99.90;;;;;;5035791;28;20052;-60
2024/03/20 10:33:29;;;;;;;15.95;5.15;;;15.10;99.90;;;;;;5023480;28;20100;-60
2024/03/20 10:35:56;;;;;;;16.70;5.10;;;15.20;99.90;;;;;;5041642;28;20049;-54
2024/03/20 10:38:24;;;;;;;14.93;4.78;;;15.20;99.90;;;;;;5040574;28;20037;-61
2024/03/20 10:40:52;;;;;;;10.73;4.55;;;15.20;99.90;;;;;;5041529;28;20055;-51
2024/03/20 10:43:21;;;;;;;15.27;5.07;;;15.20;99.90;;;;;;5045824;28;20041;-47
2024/03/20 10:45:48;;;;;;;10.33;4.47;;;15.20;99.90;;;;;;5026949;28;20407;-62
2024/03/20 10:48:18;;;;;;;8.32;5.30;;;15.20;99.90;;;;;;5025063;28;20748;-52
2024/03/20 10:50:49;;;;;;;10.80;4.25;;;15.20;99.90;;;;;;5046009;28;20578;-61
2024/03/20 10:53:16;;;;;;;14.77;4.47;;;15.20;99.90;;;;;;5032105;28;20056;-62
2024/03/20 10:55:51;;;;;;;9.55;4.32;;;15.20;99.90;;;;;;5054398;28;20070;-56
2024/03/20 10:58:18;;;;;;;8.38;3.78;;;15.30;99.90;;;;;;5042645;28;20041;-59
2024/03/20 11:00:51;;;;;;;12.90;5.05;;;15.30;99.90;;;;;;5058680;28;20045;-56
2024/03/20 11:03:37;;;;;;;11.48;4.57;;;15.30;99.90;;;;;;5043817;28;20088;-57
2024/03/20 11:06:25;;;;;;;9.07;4.07;;;15.40;97.10;;;;;;5047678;28;20048;-52
2024/03/20 11:08:55;;;;;;;8.70;3.95;;;15.40;92.20;;;;;;5046068;28;20119;-57
2024/03/20 11:11:25;;;;;;;11.65;5.15;;;15.50;97.00;;;;;;5039738;28;20053;-62
2024/03/20 11:13:54;;;;;;;10.63;4.53;;;15.50;90.20;;;;;;5041634;28;20413;-57
2024/03/20 11:16:23;;;;;;;8.57;4.47;;;15.50;90.60;;;;;;5045745;28;20568;-52
2024/03/20 11:19:01;;;;;;;15.27;4.80;;;15.40;33.00;;;;;;5041211;28;20053;-56
2024/03/20 11:21:27;;;;;;;9.15;4.90;;;15.40;50.00;;;;;;5034988;28;20068;-53
2024/03/20 11:23:53;;;;;;;7.88;4.47;;;15.40;51.30;;;;;;5053249;28;20061;-59
2024/03/20 11:26:25;;;;;;;8.85;4.80;;;15.40;44.90;;;;;;5059643;28;20052;-57
2024/03/20 11:28:51;;;;;;;13.45;5.05;;;15.40;26.80;;;;;;5060274;28;20056;-55
2024/03/20 11:31:18;;;;;;;8.48;4.35;;;15.40;65.20;;;;;;5058861;28;20097;-60
2024/03/20 11:33:46;;;;;;;9.10;4.22;;;15.50;68.50;;;;;;5060156;28;20049;-55
2024/03/20 11:36:19;;;;;;;11.80;5.72;;;15.50;49.20;;;;;;5057747;28;20452;-59
2024/03/20 11:38:46;;;;;;;11.70;4.57;;;15.50;61.50;;;;;;5060422;28;20059;-59
2024/03/20 11:41:12;;;;;;;7.28;4.20;;;15.50;58.20;;;;;;5065835;28;20863;-54
2024/03/20 11:43:44;;;;;;;10.07;4.50;;;15.50;58.10;;;;;;5059353;28;20040;-58
2024/03/20 11:46:17;;;;;;;13.55;5.28;;;15.50;70.00;;;;;;5034408;28;20123;-53
2024/03/20 11:48:47;;;;;;;13.88;4.50;;;15.50;65.00;;;;;;5041163;28;20450;-61
2024/03/20 11:51:15;;;;;;;11.00;5.18;;;15.60;79.60;;;;;;5059001;28;20044;-55
2024/03/20 11:53:41;;;;;;;14.18;4.70;;;15.60;52.70;;;;;;5040274;28;20037;-60
2024/03/20 11:56:09;;;;;;;7.80;4.72;;;15.80;78.60;;;;;;5060015;28;20147;-61
2024/03/20 11:58:36;;;;;;;14.85;5.28;;;15.90;89.30;;;;;;5058728;28;20390;-59
2024/03/20 12:01:08;;;;;;;15.65;5.00;;;16.00;30.70;;;;;;5051513;28;20080;-50
2024/03/20 12:03:38;;;;;;;10.18;5.00;;;16.00;36.10;;;;;;5058161;28;20067;-54
2024/03/20 12:06:26;;;;;;;10.52;4.97;;;16.00;5.40;;;;;;5059444;28;20444;-62
2024/03/20 12:09:02;;;;;;;16.13;6.22;;;16.10;1.00;;;;;;5058482;28;20082;-48
2024/03/20 12:11:31;;;;;;;9.50;4.95;;;16.00;1.00;;;;;;5056270;28;20913;-57
2024/03/20 12:13:57;;;;;;;16.08;5.88;;;16.00;1.00;;;;;;5042125;28;20045;-61
2024/03/20 12:16:24;;;;;;;10.32;5.32;;;16.00;1.00;;;;;;5040794;28;20584;-60
2024/03/20 12:18:51;;;;;;;9.88;5.07;;;15.90;1.00;;;;;;5060133;28;20044;-52
2024/03/20 12:21:22;;;;;;;13.25;5.72;;;15.90;5.60;;;;;;5057487;28;20075;-62
2024/03/20 12:23:50;;;;;;;10.07;5.75;;;16.00;1.00;;;;;;5058994;28;20065;-58
2024/03/20 12:26:24;;;;;;;12.93;5.32;;;15.90;1.00;;;;;;5041043;28;20098;-52
2024/03/20 12:28:51;;;;;;;13.45;6.65;;;15.90;1.00;;;;;;5060747;28;20103;-60
2024/03/20 12:31:19;;;;;;;7.38;5.55;;;15.90;1.00;;;;;;5059889;28;20560;-56
2024/03/20 12:33:51;;;;;;;12.40;6.25;;;16.00;4.30;;;;;;5061086;28;20119;-56
2024/03/20 12:36:18;;;;;;;16.15;6.75;;;15.80;1.00;;;;;;5061671;28;20040;-58
2024/03/20 12:38:45;;;;;;;10.60;6.07;;;15.70;1.30;;;;;;5039220;28;20382;-58
2024/03/20 12:41:15;;;;;;;14.98;6.97;;;15.70;7.00;;;;;;5063659;28;20500;-52
2024/03/20 12:43:42;;;;;;;11.73;5.97;;;15.70;22.30;;;;;;5062572;28;20648;-61
2024/03/20 12:46:09;;;;;;;12.23;5.97;;;15.80;56.90;;;;;;5063755;28;20078;-56
2024/03/20 12:48:35;;;;;;;10.23;5.25;;;15.80;42.60;;;;;;5063512;28;20505;-61